Time;durP1;ratioP1;P1;durP2;ratioP2;P2;SDS_P1;SDS_P2;PMS_P1;PMS_P2;Temp;Humidity;BMP_temperature;BMP_pressure;BME280_temperature;BME280_humidity;BME280_pressure;Samples;Min_cycle;Max_cycle;Signal;HPM_P1;HPM_P2
2022/08/13 00:00:54;;;;;;;2.38;2.28;;;23.90;1.00;;;;;;5110944;28;20471;-56
2022/08/13 00:03:19;;;;;;;2.40;2.20;;;23.90;1.00;;;;;;5093429;28;20311;-54
2022/08/13 00:05:45;;;;;;;2.47;2.30;;;23.80;1.00;;;;;;5110433;28;20043;-55
2022/08/13 00:08:10;;;;;;;2.45;2.25;;;23.80;1.00;;;;;;5111756;28;20116;-54
2022/08/13 00:10:36;;;;;;;3.05;2.40;;;24.00;1.00;;;;;;5111018;28;20020;-55
2022/08/13 00:13:04;;;;;;;3.05;2.20;;;24.00;1.00;;;;;;5114218;28;20028;-56
2022/08/13 00:15:41;;;;;;;4.78;2.50;;;23.90;1.00;;;;;;5115043;28;20035;-53
2022/08/13 00:18:11;;;;;;;3.22;2.10;;;23.80;1.00;;;;;;5115431;28;20472;-53
2022/08/13 00:20:43;;;;;;;2.15;2.05;;;23.80;1.00;;;;;;5113964;28;20128;-52
2022/08/13 00:23:13;;;;;;;2.35;2.10;;;23.80;1.00;;;;;;5115349;28;20098;-54
2022/08/13 00:25:41;;;;;;;3.90;2.10;;;23.80;1.00;;;;;;5114648;28;20035;-53
2022/08/13 00:28:06;;;;;;;4.00;1.90;;;23.70;1.00;;;;;;5115279;28;20088;-49
2022/08/13 00:30:34;;;;;;;2.20;2.00;;;23.70;1.00;;;;;;5114533;28;20496;-52
2022/08/13 00:33:05;;;;;;;2.25;1.58;;;23.70;1.00;;;;;;5115244;28;20141;-55
2022/08/13 00:35:36;;;;;;;2.47;1.50;;;23.80;1.00;;;;;;5114591;28;20032;-56
2022/08/13 00:38:02;;;;;;;2.08;1.98;;;23.70;1.00;;;;;;5115166;28;20023;-52
2022/08/13 00:40:29;;;;;;;1.60;1.50;;;23.70;1.00;;;;;;5114476;28;20077;-53
2022/08/13 00:43:04;;;;;;;2.38;1.52;;;23.70;1.00;;;;;;5113411;28;20032;-55
2022/08/13 00:45:31;;;;;;;3.10;1.42;;;23.50;1.00;;;;;;5111821;28;20107;-54
2022/08/13 00:50:43;;;;;;;2.13;1.35;;;23.50;1.00;;;;;;5109683;28;20131;-51
2022/08/13 00:53:17;;;;;;;1.35;1.25;;;23.60;1.00;;;;;;5114959;28;20034;-53
2022/08/13 00:55:46;;;;;;;1.75;1.00;;;23.70;1.00;;;;;;5114061;28;20023;-54
2022/08/13 00:58:15;;;;;;;2.63;1.20;;;23.60;1.00;;;;;;5114832;28;20073;-52
2022/08/13 01:00:41;;;;;;;1.50;1.05;;;23.60;1.00;;;;;;5113884;28;20077;-53
2022/08/13 01:03:08;;;;;;;1.17;1.10;;;23.60;1.00;;;;;;5114737;28;20012;-51
2022/08/13 01:05:34;;;;;;;2.63;1.55;;;23.60;1.00;;;;;;5113724;28;20047;-52
2022/08/13 01:08:00;;;;;;;1.02;0.95;;;23.60;1.00;;;;;;5113677;28;20019;-54
2022/08/13 01:10:26;;;;;;;1.63;1.33;;;23.50;1.00;;;;;;5113186;28;20099;-54
2022/08/13 01:12:53;;;;;;;1.65;1.55;;;23.60;1.00;;;;;;5113201;28;20102;-53
2022/08/13 01:15:19;;;;;;;1.33;1.23;;;23.60;1.00;;;;;;5110401;28;20543;-55
2022/08/13 01:17:47;;;;;;;1.65;1.55;;;23.50;1.00;;;;;;5112832;28;20482;-50
2022/08/13 01:20:21;;;;;;;2.00;1.70;;;23.50;1.00;;;;;;5113732;28;20031;-52
2022/08/13 01:22:52;;;;;;;;;;;23.50;1.00;;;;;;5111090;28;20023;-54
2022/08/13 01:25:22;;;;;;;2.28;1.90;;;23.50;1.00;;;;;;5112617;28;20464;-51
2022/08/13 01:27:53;;;;;;;2.28;1.83;;;23.50;1.00;;;;;;5112869;28;20031;-52
2022/08/13 01:30:22;;;;;;;1.98;1.80;;;23.40;1.00;;;;;;5113517;28;20023;-51
2022/08/13 01:32:50;;;;;;;4.30;2.20;;;23.50;1.00;;;;;;5112964;28;20089;-54
2022/08/13 01:35:17;;;;;;;2.53;2.00;;;23.40;1.00;;;;;;5112410;28;20035;-54
2022/08/13 01:37:43;;;;;;;2.70;2.03;;;23.40;1.00;;;;;;5112675;28;20554;-53
2022/08/13 01:40:10;;;;;;;2.05;1.85;;;23.40;1.00;;;;;;5113315;28;20019;-54
2022/08/13 01:42:41;;;;;;;2.20;1.88;;;23.30;1.00;;;;;;5105885;28;20536;-52
2022/08/13 01:45:08;;;;;;;3.33;1.80;;;23.10;1.00;;;;;;5113059;28;20051;-54
2022/08/13 01:50:30;;;;;;;;;;;23.30;1.00;;;;;;5110537;28;20050;-54
2022/08/13 01:53:04;;;;;;;2.63;1.88;;;23.20;1.00;;;;;;5076172;28;19908;-54
2022/08/13 01:55:37;;;;;;;2.45;1.50;;;23.20;1.00;;;;;;5097260;28;20461;-51
2022/08/13 01:58:05;;;;;;;1.67;1.58;;;23.30;1.00;;;;;;5112311;28;20077;-54
2022/08/13 02:00:31;;;;;;;3.63;1.83;;;23.30;1.00;;;;;;5112633;28;20114;-52
2022/08/13 02:03:01;;;;;;;1.95;1.73;;;23.30;1.00;;;;;;5112229;28;20106;-55
2022/08/13 02:05:27;;;;;;;1.70;1.60;;;23.20;1.00;;;;;;5112963;28;20494;-53
2022/08/13 02:07:53;;;;;;;2.25;2.05;;;23.30;1.00;;;;;;5112593;28;20020;-51
2022/08/13 02:10:21;;;;;;;2.10;1.90;;;23.30;1.00;;;;;;5113306;28;20019;-54
2022/08/13 02:12:47;;;;;;;2.78;1.27;;;23.40;1.00;;;;;;5112744;28;20041;-54
2022/08/13 02:15:15;;;;;;;2.50;1.98;;;23.30;1.00;;;;;;5113510;28;20130;-55
2022/08/13 02:17:41;;;;;;;1.70;1.60;;;23.40;1.00;;;;;;5112174;28;20373;-52
2022/08/13 02:20:08;;;;;;;1.85;1.70;;;23.30;1.00;;;;;;5113175;28;20034;-54
2022/08/13 02:22:34;;;;;;;4.00;1.92;;;23.30;1.00;;;;;;5111624;28;20030;-54
2022/08/13 02:25:01;;;;;;;1.58;1.48;;;23.40;1.00;;;;;;5112245;28;20482;-55
2022/08/13 02:27:27;;;;;;;2.80;1.65;;;23.30;1.00;;;;;;5112248;28;20107;-54
2022/08/13 02:29:55;;;;;;;1.77;1.67;;;23.30;1.00;;;;;;5113025;28;20059;-53
2022/08/13 02:32:24;;;;;;;1.90;1.80;;;23.30;1.00;;;;;;5111388;28;20065;-56
2022/08/13 02:34:51;;;;;;;1.80;1.60;;;23.40;1.00;;;;;;5113286;28;20042;-55
2022/08/13 02:37:22;;;;;;;1.85;1.70;;;23.30;1.00;;;;;;5111981;28;20023;-55
2022/08/13 02:39:53;;;;;;;1.70;1.60;;;23.30;1.00;;;;;;5113202;28;20152;-56
2022/08/13 02:42:22;;;;;;;2.38;2.00;;;23.40;1.00;;;;;;5111731;28;20032;-55
2022/08/13 02:44:49;;;;;;;1.77;1.67;;;23.30;1.00;;;;;;5112798;28;20044;-52
2022/08/13 02:47:16;;;;;;;2.83;1.65;;;23.30;1.00;;;;;;5111741;28;20023;-54
2022/08/13 02:49:42;;;;;;;1.85;1.70;;;23.40;1.00;;;;;;5112934;28;20047;-55
2022/08/13 02:52:09;;;;;;;2.67;1.83;;;23.40;1.00;;;;;;5111793;28;20052;-55
2022/08/13 02:54:40;;;;;;;1.67;1.60;;;23.20;1.00;;;;;;5112646;28;20462;-56
2022/08/13 02:57:06;;;;;;;1.83;1.67;;;23.20;1.00;;;;;;5109191;28;20479;-55
2022/08/13 02:59:32;;;;;;;2.22;1.73;;;23.30;1.00;;;;;;5100728;28;20091;-56
2022/08/13 03:01:59;;;;;;;2.00;1.77;;;23.30;1.00;;;;;;5094789;28;20092;-56
2022/08/13 03:04:25;;;;;;;1.75;1.65;;;23.10;1.00;;;;;;5098834;28;20031;-53
2022/08/13 03:06:51;;;;;;;2.58;2.05;;;23.20;1.00;;;;;;5112001;28;20024;-55
2022/08/13 03:09:20;;;;;;;3.22;2.10;;;23.30;1.00;;;;;;5112258;28;20016;-52
2022/08/13 03:11:50;;;;;;;1.88;1.77;;;23.30;1.00;;;;;;5111444;28;20047;-56
2022/08/13 03:14:17;;;;;;;1.92;1.75;;;23.30;1.00;;;;;;5111555;28;20039;-53
2022/08/13 03:16:43;;;;;;;2.42;1.85;;;23.20;1.00;;;;;;5111259;28;20024;-53
2022/08/13 03:19:09;;;;;;;2.50;2.30;;;23.20;1.00;;;;;;5112067;28;20427;-55
2022/08/13 03:21:37;;;;;;;1.90;1.80;;;23.20;1.00;;;;;;5111714;28;20054;-53
2022/08/13 03:24:04;;;;;;;2.47;2.28;;;23.20;1.00;;;;;;5111015;28;20050;-52
2022/08/13 03:26:31;;;;;;;2.45;2.20;;;23.20;1.00;;;;;;5112218;28;20027;-50
2022/08/13 03:28:58;;;;;;;3.50;2.05;;;23.20;1.00;;;;;;5111331;28;20126;-54
2022/08/13 03:31:24;;;;;;;2.30;1.92;;;23.20;1.00;;;;;;5111821;28;20476;-54
2022/08/13 03:33:52;;;;;;;3.25;2.53;;;23.20;1.00;;;;;;5106596;28;20023;-55
2022/08/13 03:36:18;;;;;;;3.53;1.85;;;23.20;1.00;;;;;;5107539;28;20032;-55
2022/08/13 03:38:44;;;;;;;3.03;2.25;;;23.20;1.00;;;;;;5110276;28;20031;-53
2022/08/13 03:41:14;;;;;;;2.33;2.13;;;23.20;1.00;;;;;;5111849;28;20019;-55
2022/08/13 03:43:42;;;;;;;2.75;1.83;;;23.20;1.00;;;;;;5110792;28;20134;-56
2022/08/13 03:46:10;;;;;;;2.65;2.08;;;23.20;1.00;;;;;;5111984;28;20434;-56
2022/08/13 03:48:35;;;;;;;2.40;2.17;;;23.10;1.00;;;;;;5111511;28;20019;-55
2022/08/13 03:51:01;;;;;;;1.83;1.73;;;23.10;1.00;;;;;;5116078;28;20409;-55
2022/08/13 03:53:28;;;;;;;1.90;1.80;;;23.10;1.00;;;;;;5115156;28;20042;-55
2022/08/13 03:55:54;;;;;;;3.00;2.30;;;23.20;1.00;;;;;;5115390;28;20042;-55
2022/08/13 03:58:21;;;;;;;2.00;1.90;;;23.20;1.00;;;;;;5115173;28;20024;-55
2022/08/13 04:00:47;;;;;;;3.58;2.28;;;23.20;1.00;;;;;;5115029;28;20164;-54
2022/08/13 04:03:36;;;;;;;3.47;1.80;;;23.20;1.00;;;;;;5115306;28;20392;-54
2022/08/13 04:06:06;;;;;;;2.28;2.08;;;23.10;1.00;;;;;;5102586;28;20028;-54
2022/08/13 04:08:34;;;;;;;2.25;2.15;;;23.20;1.00;;;;;;5114127;28;20023;-54
2022/08/13 04:11:03;;;;;;;4.78;2.42;;;23.10;1.00;;;;;;5114329;28;20045;-54
2022/08/13 04:13:33;;;;;;;2.10;1.98;;;23.10;1.00;;;;;;5102847;28;20070;-53
2022/08/13 04:15:59;;;;;;;2.28;2.08;;;23.10;1.00;;;;;;5115741;28;20395;-53
2022/08/13 04:18:24;;;;;;;2.45;2.25;;;23.10;1.00;;;;;;5114787;28;20028;-57
2022/08/13 04:20:54;;;;;;;2.28;2.08;;;23.00;1.00;;;;;;5115473;28;20527;-55
2022/08/13 04:23:21;;;;;;;2.40;2.20;;;23.10;1.00;;;;;;5114842;28;20488;-53
2022/08/13 04:25:52;;;;;;;2.03;1.92;;;23.10;1.00;;;;;;5101242;28;20034;-56
2022/08/13 04:28:20;;;;;;;3.13;2.20;;;23.10;1.00;;;;;;5114944;28;20504;-52
2022/08/13 04:30:46;;;;;;;1.92;1.73;;;23.10;1.00;;;;;;5115268;28;20049;-52
2022/08/13 04:33:14;;;;;;;2.67;2.30;;;23.10;1.00;;;;;;5114293;28;20016;-52
2022/08/13 04:35:41;;;;;;;1.92;1.83;;;23.10;1.00;;;;;;5115104;28;20016;-53
2022/08/13 04:38:08;;;;;;;2.35;2.15;;;23.10;1.00;;;;;;5114503;28;20038;-56
2022/08/13 04:40:38;;;;;;;3.92;1.80;;;23.10;1.00;;;;;;5100756;28;20543;-55
2022/08/13 04:43:05;;;;;;;2.65;2.15;;;23.10;1.00;;;;;;5114230;28;20016;-56
2022/08/13 04:45:32;;;;;;;2.05;1.70;;;23.10;1.00;;;;;;5107694;28;20071;-56
2022/08/13 04:48:00;;;;;;;2.38;2.17;;;23.10;1.00;;;;;;5114288;28;20031;-56
2022/08/13 04:50:29;;;;;;;2.30;1.92;;;23.10;1.00;;;;;;5096195;28;20114;-54
2022/08/13 04:52:55;;;;;;;2.75;2.55;;;23.10;1.00;;;;;;5114893;28;20501;-56
2022/08/13 04:55:21;;;;;;;2.10;2.00;;;23.10;1.00;;;;;;5113918;28;20122;-54
2022/08/13 04:57:47;;;;;;;2.63;2.42;;;23.10;1.00;;;;;;5114717;28;20084;-56
2022/08/13 05:00:14;;;;;;;2.03;1.88;;;23.00;1.00;;;;;;5112688;28;20019;-55
2022/08/13 05:02:43;;;;;;;2.28;2.08;;;23.10;1.00;;;;;;5114688;28;20023;-52
2022/08/13 05:05:12;;;;;;;2.83;2.08;;;23.10;1.00;;;;;;5113817;28;20035;-55
2022/08/13 05:07:39;;;;;;;2.63;2.13;;;23.00;1.00;;;;;;5114640;28;20542;-55
2022/08/13 05:10:06;;;;;;;2.30;2.10;;;23.10;1.00;;;;;;5113561;28;20033;-55
2022/08/13 05:12:36;;;;;;;2.17;1.77;;;23.10;1.00;;;;;;5113737;28;20413;-53
2022/08/13 05:15:03;;;;;;;3.58;2.58;;;23.00;1.00;;;;;;5095152;28;20427;-53
2022/08/13 05:17:30;;;;;;;3.90;2.30;;;23.00;1.00;;;;;;5096010;28;20031;-55
2022/08/13 05:19:56;;;;;;;2.35;2.15;;;23.00;1.00;;;;;;5113700;28;20156;-56
2022/08/13 05:22:23;;;;;;;3.15;2.53;;;23.00;1.00;;;;;;5100085;28;20020;-55
2022/08/13 05:24:50;;;;;;;2.58;2.00;;;23.00;1.00;;;;;;5113566;28;20071;-51
2022/08/13 05:27:17;;;;;;;3.03;2.30;;;23.10;1.00;;;;;;5114186;28;20398;-55
2022/08/13 05:29:43;;;;;;;2.33;2.13;;;23.10;1.00;;;;;;5112960;28;20053;-54
2022/08/13 05:32:10;;;;;;;2.13;2.00;;;23.10;1.00;;;;;;5114183;28;20023;-56
2022/08/13 05:34:37;;;;;;;2.45;2.10;;;23.10;1.00;;;;;;5113342;28;20048;-55
2022/08/13 05:37:05;;;;;;;4.65;2.15;;;23.10;1.00;;;;;;5112697;28;20036;-56
2022/08/13 05:39:31;;;;;;;2.95;2.70;;;23.20;1.00;;;;;;5104187;28;20016;-55
2022/08/13 05:41:57;;;;;;;3.15;2.50;;;23.20;1.00;;;;;;5112700;28;20081;-56
2022/08/13 05:44:23;;;;;;;2.35;2.15;;;23.30;1.00;;;;;;5111735;28;20433;-54
2022/08/13 05:46:49;;;;;;;2.60;2.25;;;23.20;1.00;;;;;;5113833;28;20039;-55
2022/08/13 05:49:15;;;;;;;4.18;2.30;;;23.30;1.00;;;;;;5112912;28;20031;-55
2022/08/13 05:51:43;;;;;;;3.38;2.35;;;23.30;1.00;;;;;;5110760;28;20027;-53
2022/08/13 05:54:10;;;;;;;2.85;2.35;;;23.40;1.00;;;;;;5106945;28;20024;-56
2022/08/13 05:56:37;;;;;;;3.20;2.90;;;23.30;1.00;;;;;;5112622;28;20026;-52
2022/08/13 06:03:22;;;;;;;6.53;2.78;;;23.30;1.00;;;;;;5113977;28;20357;-55
2022/08/13 06:04:38;;;;;;;2.85;2.55;;;23.40;1.00;;;;;;5113861;28;20046;-52
2022/08/13 06:07:04;;;;;;;4.32;2.40;;;23.50;1.00;;;;;;5104792;28;20023;-53
2022/08/13 06:09:30;;;;;;;3.00;2.38;;;23.50;1.00;;;;;;5113077;28;20056;-56
2022/08/13 06:11:59;;;;;;;3.08;2.38;;;23.60;1.00;;;;;;5111925;28;20031;-55
2022/08/13 06:14:25;;;;;;;2.10;2.00;;;23.70;1.00;;;;;;5113390;28;20491;-50
2022/08/13 06:16:51;;;;;;;3.35;2.60;;;23.60;1.00;;;;;;5112552;28;20024;-54
2022/08/13 06:19:22;;;;;;;3.53;2.67;;;23.70;1.00;;;;;;5113306;28;20051;-55
2022/08/13 06:21:50;;;;;;;2.00;1.90;;;23.70;1.00;;;;;;5112615;28;20074;-53
2022/08/13 06:24:15;;;;;;;2.45;1.98;;;23.70;1.00;;;;;;5113203;28;20488;-56
2022/08/13 06:26:41;;;;;;;3.88;1.90;;;23.70;1.00;;;;;;5109981;28;20031;-56
2022/08/13 06:29:07;;;;;;;2.40;1.90;;;23.80;1.00;;;;;;5096637;28;20058;-54
2022/08/13 06:31:38;;;;;;;1.90;1.80;;;23.80;1.00;;;;;;5102822;28;20024;-57
2022/08/13 06:34:08;;;;;;;1.73;1.63;;;23.80;1.00;;;;;;5111289;28;20024;-56
2022/08/13 06:36:36;;;;;;;1.80;1.70;;;23.80;1.00;;;;;;5110969;28;20168;-55
2022/08/13 06:39:04;;;;;;;4.50;1.60;;;23.80;1.00;;;;;;5105429;28;20020;-52
2022/08/13 06:41:31;;;;;;;1.23;1.10;;;23.80;1.00;;;;;;5105510;28;20043;-55
2022/08/13 06:43:58;;;;;;;1.55;1.15;;;23.80;1.00;;;;;;5112526;28;20040;-55
2022/08/13 06:46:26;;;;;;;1.30;1.20;;;23.90;1.00;;;;;;5111622;28;20031;-56
2022/08/13 06:48:52;;;;;;;1.45;1.42;;;23.80;1.00;;;;;;5112591;28;20027;-55
2022/08/13 06:51:20;;;;;;;1.55;1.33;;;23.90;1.00;;;;;;5111554;28;20481;-56
2022/08/13 06:53:47;;;;;;;1.20;1.10;;;23.90;1.00;;;;;;5112590;28;20019;-56
2022/08/13 06:56:17;;;;;;;1.45;1.30;;;23.80;1.00;;;;;;5093179;28;20027;-55
2022/08/13 06:58:45;;;;;;;1.95;1.10;;;23.80;1.00;;;;;;5111820;28;20495;-55
2022/08/13 07:01:23;;;;;;;1.95;1.33;;;23.90;1.00;;;;;;5109174;28;20019;-55
2022/08/13 07:03:49;;;;;;;1.70;1.60;;;23.90;1.00;;;;;;5107413;28;20027;-55
2022/08/13 07:06:17;;;;;;;1.30;1.30;;;23.90;1.00;;;;;;5111281;28;20035;-56
2022/08/13 07:08:43;;;;;;;1.83;1.70;;;24.00;1.00;;;;;;5112397;28;20051;-54
2022/08/13 07:11:21;;;;;;;1.63;1.42;;;23.90;1.00;;;;;;5111399;28;20031;-57
2022/08/13 07:13:49;;;;;;;2.65;1.90;;;24.00;1.00;;;;;;5112170;28;20034;-56
2022/08/13 07:16:16;;;;;;;1.35;1.35;;;24.00;1.00;;;;;;5110163;28;20028;-54
2022/08/13 07:18:43;;;;;;;1.48;1.38;;;24.10;1.00;;;;;;5112055;28;20485;-56
2022/08/13 07:21:10;;;;;;;1.98;1.30;;;24.10;1.00;;;;;;5110856;28;20050;-55
2022/08/13 07:23:41;;;;;;;1.58;1.48;;;24.00;1.00;;;;;;5111041;28;20035;-56
2022/08/13 07:26:08;;;;;;;2.50;1.70;;;24.10;1.00;;;;;;5111275;28;20175;-55
2022/08/13 07:28:35;;;;;;;2.72;1.27;;;24.20;1.00;;;;;;5112137;28;20087;-56
2022/08/13 07:31:06;;;;;;;1.60;1.50;;;24.20;1.00;;;;;;5111215;28;20053;-56
2022/08/13 07:33:37;;;;;;;1.38;1.27;;;24.30;1.00;;;;;;5099224;28;20012;-56
2022/08/13 07:36:08;;;;;;;1.88;1.25;;;24.30;1.00;;;;;;5110976;28;20054;-54
2022/08/13 07:38:34;;;;;;;2.35;1.10;;;24.30;1.00;;;;;;5098491;28;20015;-55
2022/08/13 07:41:02;;;;;;;1.10;1.08;;;24.20;1.00;;;;;;5111070;28;20110;-54
2022/08/13 07:43:36;;;;;;;2.70;1.30;;;24.40;1.00;;;;;;5111532;28;20036;-56
2022/08/13 07:46:07;;;;;;;1.33;1.23;;;24.40;1.00;;;;;;5110980;28;20067;-57
2022/08/13 07:48:35;;;;;;;1.35;1.27;;;24.50;1.00;;;;;;5108963;28;20015;-54
2022/08/13 07:51:03;;;;;;;1.33;1.23;;;24.50;1.00;;;;;;5111431;28;20091;-56
2022/08/13 07:53:29;;;;;;;1.48;1.30;;;24.50;1.00;;;;;;5108365;28;20487;-53
2022/08/13 07:55:56;;;;;;;1.27;1.17;;;24.60;1.00;;;;;;5112131;28;20423;-56
2022/08/13 07:58:27;;;;;;;1.35;1.35;;;24.60;1.00;;;;;;5092767;28;20028;-55
2022/08/13 08:00:57;;;;;;;1.77;1.27;;;24.50;1.00;;;;;;5111945;28;20414;-55
2022/08/13 08:03:25;;;;;;;2.20;1.40;;;24.60;1.00;;;;;;5111307;28;20030;-56
2022/08/13 08:05:53;;;;;;;1.95;1.30;;;24.70;1.00;;;;;;5097979;28;20028;-54
2022/08/13 08:08:19;;;;;;;1.23;1.13;;;24.70;1.00;;;;;;5108285;28;20027;-55
2022/08/13 08:10:46;;;;;;;0.95;0.95;;;24.60;1.00;;;;;;5111663;28;20076;-55
2022/08/13 08:13:12;;;;;;;1.52;1.42;;;24.60;1.00;;;;;;5110081;28;20027;-54
2022/08/13 08:15:42;;;;;;;1.67;1.17;;;24.70;1.00;;;;;;5111768;28;20051;-54
2022/08/13 08:18:08;;;;;;;4.07;1.10;;;24.80;1.00;;;;;;5110828;28;20024;-56
2022/08/13 08:20:34;;;;;;;1.25;1.15;;;24.80;1.00;;;;;;5111660;28;20031;-56
2022/08/13 08:23:00;;;;;;;1.40;1.30;;;24.90;1.00;;;;;;5110891;28;20388;-56
2022/08/13 08:25:26;;;;;;;2.70;1.55;;;25.00;1.00;;;;;;5110837;28;20039;-53
2022/08/13 08:27:52;;;;;;;2.03;1.85;;;25.00;1.00;;;;;;5110297;28;20046;-55
2022/08/13 08:30:19;;;;;;;1.63;1.52;;;25.00;1.00;;;;;;5111791;28;20031;-55
2022/08/13 08:32:56;;;;;;;1.50;1.40;;;25.10;1.00;;;;;;5111752;28;20031;-55
2022/08/13 08:35:23;;;;;;;2.35;1.33;;;25.20;1.00;;;;;;5104050;28;20031;-55
2022/08/13 08:43:34;;;;;;;3.63;1.70;;;25.20;1.00;;;;;;5114478;28;20086;-54
2022/08/13 08:46:03;;;;;;;2.13;1.23;;;25.30;1.00;;;;;;5115254;28;20067;-54
2022/08/13 08:48:30;;;;;;;1.92;1.45;;;25.40;1.00;;;;;;5114156;28;20494;-55
2022/08/13 08:50:59;;;;;;;1.00;1.00;;;25.40;1.00;;;;;;5114917;28;20077;-55
2022/08/13 08:53:28;;;;;;;2.28;1.30;;;25.40;1.00;;;;;;5114224;28;20027;-58
2022/08/13 08:55:54;;;;;;;1.80;1.20;;;25.40;1.00;;;;;;5115025;28;20020;-55
2022/08/13 08:58:22;;;;;;;1.40;1.30;;;25.50;1.00;;;;;;5114212;28;20099;-55
2022/08/13 09:00:49;;;;;;;1.50;1.40;;;25.50;1.00;;;;;;5115143;28;20103;-54
2022/08/13 09:03:18;;;;;;;1.65;1.55;;;25.60;1.00;;;;;;5113999;28;20059;-55
2022/08/13 09:05:45;;;;;;;1.05;1.05;;;25.60;1.00;;;;;;5114597;28;20066;-56
2022/08/13 09:08:18;;;;;;;1.60;1.50;;;25.70;1.00;;;;;;5113918;28;20024;-53
2022/08/13 09:10:46;;;;;;;1.90;1.80;;;25.70;1.00;;;;;;5114607;28;20028;-52
2022/08/13 09:13:19;;;;;;;2.70;2.08;;;25.70;1.00;;;;;;5113697;28;20020;-55
2022/08/13 09:15:48;;;;;;;1.48;1.38;;;25.80;1.00;;;;;;5113812;28;20031;-55
2022/08/13 09:18:17;;;;;;;1.67;1.35;;;25.80;1.00;;;;;;5113760;28;20019;-56
2022/08/13 09:20:43;;;;;;;1.58;1.50;;;25.80;1.00;;;;;;5114477;28;20020;-52
2022/08/13 09:23:13;;;;;;;2.53;2.05;;;25.80;1.00;;;;;;5113707;28;20389;-55
2022/08/13 09:25:44;;;;;;;2.45;1.67;;;25.80;1.00;;;;;;5113636;28;20032;-56
2022/08/13 09:28:10;;;;;;;2.10;1.90;;;25.90;1.00;;;;;;5112605;28;20119;-56
2022/08/13 09:30:37;;;;;;;2.00;1.83;;;26.00;1.00;;;;;;5114469;28;20403;-55
2022/08/13 09:33:04;;;;;;;2.55;1.98;;;26.00;1.00;;;;;;5112328;28;20016;-52
2022/08/13 09:35:31;;;;;;;2.83;1.55;;;26.10;1.00;;;;;;5095838;28;20413;-54
2022/08/13 09:37:58;;;;;;;2.00;1.90;;;26.00;1.00;;;;;;5113232;28;20028;-56
2022/08/13 09:40:27;;;;;;;2.40;2.08;;;26.10;1.00;;;;;;5114318;28;20034;-53
2022/08/13 09:42:57;;;;;;;1.73;1.63;;;26.10;1.00;;;;;;5113374;28;20089;-51
2022/08/13 09:45:27;;;;;;;3.80;1.70;;;26.20;1.00;;;;;;5113049;28;20065;-57
2022/08/13 09:47:56;;;;;;;2.20;1.90;;;26.20;1.00;;;;;;5105613;28;20019;-55
2022/08/13 09:50:24;;;;;;;2.42;1.65;;;26.20;1.00;;;;;;5092692;28;20237;-57
2022/08/13 09:52:52;;;;;;;2.67;1.70;;;26.30;1.00;;;;;;5100642;28;20442;-56
2022/08/13 09:55:19;;;;;;;2.63;2.22;;;26.40;1.00;;;;;;5108546;28;20031;-56
2022/08/13 09:58:04;;;;;;;3.67;2.33;;;26.30;1.00;;;;;;5113345;28;20031;-56
2022/08/13 10:00:33;;;;;;;1.88;1.77;;;26.40;1.00;;;;;;5113901;28;20051;-53
2022/08/13 10:03:06;;;;;;;3.03;1.92;;;26.40;1.00;;;;;;5113062;28;20130;-57
2022/08/13 10:05:34;;;;;;;4.82;2.13;;;26.40;1.00;;;;;;5095353;28;20374;-57
2022/08/13 10:08:12;;;;;;;2.20;2.00;;;26.60;1.00;;;;;;5112814;28;20024;-57
2022/08/13 10:10:38;;;;;;;2.50;2.20;;;26.70;1.00;;;;;;5112719;28;20034;-54
2022/08/13 10:13:03;;;;;;;2.42;2.10;;;26.70;1.00;;;;;;5112977;28;20055;-55
2022/08/13 10:15:30;;;;;;;3.90;2.47;;;26.60;1.00;;;;;;5113391;28;20020;-54
2022/08/13 10:17:57;;;;;;;2.42;2.25;;;26.70;1.00;;;;;;5112660;28;20092;-55
2022/08/13 10:20:28;;;;;;;2.63;2.42;;;26.80;1.00;;;;;;5113384;28;20028;-56
2022/08/13 10:22:54;;;;;;;3.13;2.13;;;26.80;1.00;;;;;;5112352;28;20016;-55
2022/08/13 10:25:20;;;;;;;2.15;2.00;;;26.90;1.00;;;;;;5111044;28;20580;-54
2022/08/13 10:27:47;;;;;;;2.20;2.00;;;27.00;1.00;;;;;;5106403;28;20106;-57
2022/08/13 10:30:13;;;;;;;2.13;2.00;;;27.00;1.00;;;;;;5113106;28;20039;-52
2022/08/13 10:32:39;;;;;;;2.97;2.08;;;27.00;1.00;;;;;;5111400;28;20129;-54
2022/08/13 10:35:05;;;;;;;2.72;1.80;;;27.10;1.00;;;;;;5113390;28;20483;-56
2022/08/13 10:37:31;;;;;;;2.40;2.20;;;27.00;1.00;;;;;;5112345;28;20499;-54
2022/08/13 10:39:58;;;;;;;2.92;2.58;;;27.10;1.00;;;;;;5112922;28;20028;-57
2022/08/13 10:42:24;;;;;;;3.10;1.92;;;27.20;1.00;;;;;;5112133;28;20019;-56
2022/08/13 10:44:52;;;;;;;2.05;1.85;;;27.30;1.00;;;;;;5112321;28;20105;-53
2022/08/13 10:47:24;;;;;;;3.88;3.47;;;27.30;1.00;;;;;;5112236;28;20485;-55
2022/08/13 10:49:51;;;;;;;2.85;2.10;;;27.40;1.00;;;;;;5112596;28;20115;-55
2022/08/13 10:52:19;;;;;;;2.30;1.90;;;27.50;1.00;;;;;;5112080;28;20041;-56
2022/08/13 10:54:48;;;;;;;2.42;2.22;;;27.50;1.00;;;;;;5112760;28;20051;-56
2022/08/13 10:57:15;;;;;;;2.97;2.10;;;27.60;1.00;;;;;;5111817;28;20362;-54
2022/08/13 10:59:45;;;;;;;2.30;2.10;;;27.70;1.00;;;;;;5112693;28;20103;-55
2022/08/13 11:02:12;;;;;;;2.00;1.90;;;27.70;1.00;;;;;;5112105;28;20559;-57
2022/08/13 11:04:38;;;;;;;2.40;2.20;;;27.60;1.00;;;;;;5112482;28;20070;-57
2022/08/13 11:07:10;;;;;;;2.00;1.90;;;27.60;1.00;;;;;;5111905;28;20036;-57
2022/08/13 11:09:37;;;;;;;3.35;2.42;;;27.70;1.00;;;;;;5112452;28;20058;-57
2022/08/13 11:12:05;;;;;;;2.72;2.20;;;27.80;1.00;;;;;;5111237;28;20020;-57
2022/08/13 11:14:32;;;;;;;2.15;2.05;;;27.90;1.00;;;;;;5111958;28;20023;-57
2022/08/13 11:16:58;;;;;;;1.70;1.63;;;28.00;1.00;;;;;;5111779;28;20031;-56
2022/08/13 11:19:26;;;;;;;1.90;1.70;;;27.80;1.00;;;;;;5112300;28;20054;-53
2022/08/13 11:21:52;;;;;;;2.00;1.90;;;28.00;1.00;;;;;;5111589;28;20062;-57
2022/08/13 11:24:18;;;;;;;1.67;1.58;;;28.10;1.00;;;;;;5112373;28;20476;-56
2022/08/13 11:26:45;;;;;;;1.98;1.88;;;27.90;1.00;;;;;;5111506;28;20031;-55
2022/08/13 11:29:12;;;;;;;2.35;2.15;;;28.10;1.00;;;;;;5112300;28;20016;-56
2022/08/13 11:31:38;;;;;;;2.08;1.98;;;28.30;1.00;;;;;;5107448;28;20035;-56
2022/08/13 11:34:04;;;;;;;1.77;1.67;;;28.30;1.00;;;;;;5112202;28;20024;-56
2022/08/13 11:36:30;;;;;;;1.92;1.83;;;28.50;1.00;;;;;;5110750;28;20094;-57
2022/08/13 11:38:55;;;;;;;2.13;2.03;;;28.60;1.00;;;;;;5112175;28;20023;-53
2022/08/13 11:41:21;;;;;;;2.28;2.17;;;28.60;1.00;;;;;;5111353;28;20507;-55
2022/08/13 11:43:48;;;;;;;2.10;2.00;;;28.80;1.00;;;;;;5112118;28;20056;-56
2022/08/13 11:46:14;;;;;;;2.30;2.10;;;29.00;1.00;;;;;;5111219;28;20449;-57
2022/08/13 11:48:41;;;;;;;3.42;1.85;;;29.10;1.00;;;;;;5101807;28;20127;-56
2022/08/13 11:51:07;;;;;;;2.00;1.90;;;29.20;1.00;;;;;;5107328;28;20020;-54
2022/08/13 11:53:33;;;;;;;2.42;2.33;;;29.20;1.00;;;;;;5111988;28;20076;-56
2022/08/13 11:55:59;;;;;;;2.58;2.40;;;29.50;1.00;;;;;;5111975;28;20025;-57
2022/08/13 11:58:24;;;;;;;2.30;2.08;;;31.80;1.00;;;;;;5111181;28;20028;-56
2022/08/13 12:00:53;;;;;;;2.42;2.15;;;36.00;1.00;;;;;;5111570;28;20026;-56
2022/08/13 12:03:19;;;;;;;3.10;2.17;;;37.30;1.00;;;;;;5109020;28;20051;-53
2022/08/13 12:05:44;;;;;;;2.95;2.58;;;37.70;1.00;;;;;;5112157;28;20060;-59
2022/08/13 12:08:19;;;;;;;2.80;2.42;;;36.80;1.00;;;;;;5112170;28;20106;-57
2022/08/13 12:10:47;;;;;;;2.58;2.47;;;35.00;1.00;;;;;;5115926;28;20027;-58
2022/08/13 12:13:12;;;;;;;2.55;2.22;;;35.00;1.00;;;;;;5115389;28;20385;-57
2022/08/13 12:15:39;;;;;;;3.03;2.83;;;36.10;1.00;;;;;;5115842;28;20027;-58
2022/08/13 12:18:04;;;;;;;2.90;2.70;;;38.10;1.00;;;;;;5115047;28;20043;-58
2022/08/13 12:20:30;;;;;;;2.80;2.70;;;39.90;1.00;;;;;;5115731;28;20385;-57
2022/08/13 12:22:58;;;;;;;2.88;2.78;;;41.60;1.00;;;;;;5115381;28;20032;-57
2022/08/13 12:25:26;;;;;;;2.97;2.78;;;43.50;1.00;;;;;;5114782;28;20082;-56
2022/08/13 12:28:13;;;;;;;3.20;3.00;;;44.30;1.00;;;;;;5115048;28;20027;-57
2022/08/13 12:30:40;;;;;;;3.00;2.90;;;44.10;1.00;;;;;;5115785;28;20034;-57
2022/08/13 12:33:05;;;;;;;3.75;3.47;;;43.80;1.00;;;;;;5113514;28;20036;-59
2022/08/13 12:35:32;;;;;;;3.28;3.13;;;41.40;1.00;;;;;;5115495;28;20068;-56
2022/08/13 12:37:58;;;;;;;3.55;3.35;;;39.50;1.00;;;;;;5096494;28;20035;-57
2022/08/13 12:40:24;;;;;;;3.70;3.40;;;38.00;1.00;;;;;;5115574;28;20376;-57
2022/08/13 12:42:49;;;;;;;3.70;3.40;;;37.30;1.00;;;;;;5113410;28;20492;-55
2022/08/13 12:45:16;;;;;;;3.53;3.33;;;37.00;1.00;;;;;;5112506;28;20071;-55
2022/08/13 12:47:46;;;;;;;4.00;3.80;;;36.70;1.00;;;;;;5115200;28;20020;-56
2022/08/13 12:50:12;;;;;;;3.90;3.60;;;36.40;1.00;;;;;;5113948;28;20104;-58
2022/08/13 12:52:38;;;;;;;3.78;3.67;;;36.40;1.00;;;;;;5115175;28;20073;-58
2022/08/13 12:55:06;;;;;;;3.65;3.55;;;36.80;1.00;;;;;;5114215;28;20070;-56
2022/08/13 12:57:32;;;;;;;3.90;3.70;;;37.70;1.00;;;;;;5114988;28;20028;-57
2022/08/13 12:59:58;;;;;;;4.00;3.80;;;38.60;1.00;;;;;;5114021;28;20485;-57
2022/08/13 13:02:23;;;;;;;4.18;3.97;;;38.80;1.00;;;;;;5114140;28;20073;-56
2022/08/13 13:04:49;;;;;;;4.30;3.90;;;38.30;1.00;;;;;;5099940;28;20063;-57
2022/08/13 13:07:15;;;;;;;4.10;4.00;;;39.10;1.00;;;;;;5111991;28;20427;-57
2022/08/13 13:09:40;;;;;;;3.83;3.72;;;38.60;1.00;;;;;;5095373;28;20020;-56
2022/08/13 13:12:07;;;;;;;3.97;3.88;;;39.60;1.00;;;;;;5094213;28;20492;-57
2022/08/13 13:14:32;;;;;;;4.07;3.88;;;40.40;1.00;;;;;;5102010;28;20022;-57